sensor_id;sensor_type;location;lat;lon;timestamp;P1;durP1;ratioP1;P2;durP2;ratioP2
23561;SDS011;11959;49.418;8.728;2024-02-14T00:02:16;6.63;;;3.80;;
23561;SDS011;11959;49.418;8.728;2024-02-14T00:04:42;7.70;;;4.13;;
23561;SDS011;11959;49.418;8.728;2024-02-14T00:07:07;6.75;;;4.22;;
23561;SDS011;11959;49.418;8.728;2024-02-14T00:09:34;8.20;;;4.90;;
23561;SDS011;11959;49.418;8.728;2024-02-14T00:12:00;8.57;;;4.90;;
23561;SDS011;11959;49.418;8.728;2024-02-14T00:14:25;7.07;;;4.20;;
23561;SDS011;11959;49.418;8.728;2024-02-14T00:16:51;8.85;;;4.88;;
23561;SDS011;11959;49.418;8.728;2024-02-14T00:19:16;8.45;;;5.53;;
23561;SDS011;11959;49.418;8.728;2024-02-14T00:21:42;9.88;;;5.38;;
23561;SDS011;11959;49.418;8.728;2024-02-14T00:24:08;11.07;;;6.90;;
23561;SDS011;11959;49.418;8.728;2024-02-14T00:26:33;9.60;;;6.20;;
23561;SDS011;11959;49.418;8.728;2024-02-14T00:28:59;9.13;;;6.55;;
23561;SDS011;11959;49.418;8.728;2024-02-14T00:31:25;10.50;;;6.38;;
23561;SDS011;11959;49.418;8.728;2024-02-14T00:33:50;12.10;;;7.15;;
23561;SDS011;11959;49.418;8.728;2024-02-14T00:36:16;11.48;;;7.28;;
23561;SDS011;11959;49.418;8.728;2024-02-14T00:38:42;12.15;;;7.00;;
23561;SDS011;11959;49.418;8.728;2024-02-14T00:41:10;11.50;;;6.75;;
23561;SDS011;11959;49.418;8.728;2024-02-14T00:43:36;12.00;;;7.40;;
23561;SDS011;11959;49.418;8.728;2024-02-14T00:46:02;9.63;;;6.38;;
23561;SDS011;11959;49.418;8.728;2024-02-14T00:48:27;11.40;;;6.82;;
23561;SDS011;11959;49.418;8.728;2024-02-14T00:50:53;14.13;;;8.07;;
23561;SDS011;11959;49.418;8.728;2024-02-14T00:53:19;11.70;;;6.90;;
23561;SDS011;11959;49.418;8.728;2024-02-14T00:55:45;12.90;;;6.93;;
23561;SDS011;11959;49.418;8.728;2024-02-14T00:58:11;12.57;;;7.30;;
23561;SDS011;11959;49.418;8.728;2024-02-14T01:00:37;11.35;;;7.25;;
23561;SDS011;11959;49.418;8.728;2024-02-14T01:03:02;11.27;;;7.40;;
23561;SDS011;11959;49.418;8.728;2024-02-14T01:05:28;11.95;;;7.32;;
23561;SDS011;11959;49.418;8.728;2024-02-14T01:07:54;12.02;;;6.75;;
23561;SDS011;11959;49.418;8.728;2024-02-14T01:12:48;9.57;;;6.22;;
23561;SDS011;11959;49.418;8.728;2024-02-14T01:15:14;11.50;;;7.00;;
23561;SDS011;11959;49.418;8.728;2024-02-14T01:17:39;10.30;;;6.85;;
23561;SDS011;11959;49.418;8.728;2024-02-14T01:20:06;11.57;;;6.13;;
23561;SDS011;11959;49.418;8.728;2024-02-14T01:22:34;12.15;;;6.70;;
23561;SDS011;11959;49.418;8.728;2024-02-14T01:25:01;11.32;;;6.35;;
23561;SDS011;11959;49.418;8.728;2024-02-14T01:27:28;9.50;;;6.32;;
23561;SDS011;11959;49.418;8.728;2024-02-14T01:29:53;12.68;;;6.28;;
23561;SDS011;11959;49.418;8.728;2024-02-14T01:32:20;10.73;;;7.00;;
23561;SDS011;11959;49.418;8.728;2024-02-14T01:34:45;13.25;;;6.93;;
23561;SDS011;11959;49.418;8.728;2024-02-14T01:37:11;11.18;;;6.85;;
23561;SDS011;11959;49.418;8.728;2024-02-14T01:39:37;11.38;;;7.40;;
23561;SDS011;11959;49.418;8.728;2024-02-14T01:42:03;13.63;;;7.97;;
23561;SDS011;11959;49.418;8.728;2024-02-14T01:44:32;13.25;;;6.85;;
23561;SDS011;11959;49.418;8.728;2024-02-14T01:47:01;13.05;;;6.97;;
23561;SDS011;11959;49.418;8.728;2024-02-14T01:49:27;11.32;;;7.03;;
23561;SDS011;11959;49.418;8.728;2024-02-14T01:51:53;11.07;;;6.97;;
23561;SDS011;11959;49.418;8.728;2024-02-14T01:54:21;11.15;;;6.75;;
23561;SDS011;11959;49.418;8.728;2024-02-14T01:56:47;11.07;;;7.00;;
23561;SDS011;11959;49.418;8.728;2024-02-14T01:59:13;12.23;;;6.97;;
23561;SDS011;11959;49.418;8.728;2024-02-14T02:01:41;10.02;;;6.72;;
23561;SDS011;11959;49.418;8.728;2024-02-14T02:04:07;8.85;;;6.28;;
23561;SDS011;11959;49.418;8.728;2024-02-14T02:06:33;9.27;;;6.50;;
23561;SDS011;11959;49.418;8.728;2024-02-14T02:08:59;10.88;;;6.78;;
23561;SDS011;11959;49.418;8.728;2024-02-14T02:11:25;9.20;;;5.75;;
23561;SDS011;11959;49.418;8.728;2024-02-14T02:13:51;10.27;;;6.47;;
23561;SDS011;11959;49.418;8.728;2024-02-14T02:16:17;9.10;;;6.00;;
23561;SDS011;11959;49.418;8.728;2024-02-14T02:18:44;11.05;;;7.15;;
23561;SDS011;11959;49.418;8.728;2024-02-14T02:21:10;10.48;;;6.72;;
23561;SDS011;11959;49.418;8.728;2024-02-14T02:23:38;10.52;;;6.75;;
23561;SDS011;11959;49.418;8.728;2024-02-14T02:26:05;10.25;;;6.57;;
23561;SDS011;11959;49.418;8.728;2024-02-14T02:28:31;9.40;;;6.18;;
23561;SDS011;11959;49.418;8.728;2024-02-14T02:30:57;8.90;;;5.70;;
23561;SDS011;11959;49.418;8.728;2024-02-14T02:33:23;9.63;;;6.50;;
23561;SDS011;11959;49.418;8.728;2024-02-14T02:35:49;11.75;;;7.15;;
23561;SDS011;11959;49.418;8.728;2024-02-14T02:38:16;12.18;;;7.15;;
23561;SDS011;11959;49.418;8.728;2024-02-14T02:40:46;12.10;;;6.60;;
23561;SDS011;11959;49.418;8.728;2024-02-14T02:43:12;10.20;;;6.45;;
23561;SDS011;11959;49.418;8.728;2024-02-14T02:45:38;11.18;;;6.20;;
23561;SDS011;11959;49.418;8.728;2024-02-14T02:48:04;9.07;;;6.18;;
23561;SDS011;11959;49.418;8.728;2024-02-14T02:50:30;12.88;;;6.95;;
23561;SDS011;11959;49.418;8.728;2024-02-14T02:52:55;9.80;;;5.85;;
23561;SDS011;11959;49.418;8.728;2024-02-14T02:55:22;10.52;;;6.35;;
23561;SDS011;11959;49.418;8.728;2024-02-14T02:57:48;10.60;;;5.97;;
23561;SDS011;11959;49.418;8.728;2024-02-14T03:00:14;10.82;;;5.78;;
23561;SDS011;11959;49.418;8.728;2024-02-14T03:02:41;9.68;;;5.80;;
23561;SDS011;11959;49.418;8.728;2024-02-14T03:05:09;10.77;;;5.78;;
23561;SDS011;11959;49.418;8.728;2024-02-14T03:07:43;9.40;;;5.68;;
23561;SDS011;11959;49.418;8.728;2024-02-14T03:10:10;8.77;;;5.80;;
23561;SDS011;11959;49.418;8.728;2024-02-14T03:12:38;8.20;;;5.25;;
23561;SDS011;11959;49.418;8.728;2024-02-14T03:15:04;9.20;;;5.40;;
23561;SDS011;11959;49.418;8.728;2024-02-14T03:17:30;9.55;;;5.75;;
23561;SDS011;11959;49.418;8.728;2024-02-14T03:19:56;9.25;;;5.28;;
23561;SDS011;11959;49.418;8.728;2024-02-14T03:22:22;8.10;;;5.47;;
23561;SDS011;11959;49.418;8.728;2024-02-14T03:24:48;7.65;;;5.43;;
23561;SDS011;11959;49.418;8.728;2024-02-14T03:27:13;7.20;;;5.07;;
23561;SDS011;11959;49.418;8.728;2024-02-14T03:29:39;10.32;;;6.68;;
23561;SDS011;11959;49.418;8.728;2024-02-14T03:32:05;8.95;;;5.63;;
23561;SDS011;11959;49.418;8.728;2024-02-14T03:34:33;9.70;;;6.03;;
23561;SDS011;11959;49.418;8.728;2024-02-14T03:37:00;8.02;;;5.57;;
23561;SDS011;11959;49.418;8.728;2024-02-14T03:39:32;9.75;;;5.65;;
23561;SDS011;11959;49.418;8.728;2024-02-14T03:41:57;9.88;;;5.63;;
23561;SDS011;11959;49.418;8.728;2024-02-14T03:44:26;10.90;;;5.60;;
23561;SDS011;11959;49.418;8.728;2024-02-14T03:46:51;9.43;;;5.97;;
23561;SDS011;11959;49.418;8.728;2024-02-14T03:49:17;9.48;;;5.82;;
23561;SDS011;11959;49.418;8.728;2024-02-14T03:51:44;11.75;;;6.50;;
23561;SDS011;11959;49.418;8.728;2024-02-14T03:54:11;9.25;;;5.63;;
23561;SDS011;11959;49.418;8.728;2024-02-14T03:56:36;7.53;;;5.10;;
23561;SDS011;11959;49.418;8.728;2024-02-14T03:59:02;7.80;;;5.13;;
23561;SDS011;11959;49.418;8.728;2024-02-14T04:01:30;7.95;;;5.00;;
23561;SDS011;11959;49.418;8.728;2024-02-14T04:03:56;9.48;;;4.85;;
23561;SDS011;11959;49.418;8.728;2024-02-14T04:06:22;8.82;;;5.15;;
23561;SDS011;11959;49.418;8.728;2024-02-14T04:08:47;7.75;;;5.43;;
23561;SDS011;11959;49.418;8.728;2024-02-14T04:11:14;9.02;;;5.50;;
23561;SDS011;11959;49.418;8.728;2024-02-14T04:13:39;8.18;;;5.07;;
23561;SDS011;11959;49.418;8.728;2024-02-14T04:16:05;7.57;;;4.75;;
23561;SDS011;11959;49.418;8.728;2024-02-14T04:18:31;8.70;;;5.13;;
23561;SDS011;11959;49.418;8.728;2024-02-14T04:20:57;10.00;;;5.13;;
23561;SDS011;11959;49.418;8.728;2024-02-14T04:23:23;6.82;;;4.53;;
23561;SDS011;11959;49.418;8.728;2024-02-14T04:25:51;9.65;;;4.90;;
23561;SDS011;11959;49.418;8.728;2024-02-14T04:28:17;7.10;;;4.88;;
23561;SDS011;11959;49.418;8.728;2024-02-14T04:30:42;9.93;;;5.18;;
23561;SDS011;11959;49.418;8.728;2024-02-14T04:33:08;9.98;;;4.90;;
23561;SDS011;11959;49.418;8.728;2024-02-14T04:35:34;9.88;;;4.63;;
23561;SDS011;11959;49.418;8.728;2024-02-14T04:38:00;8.73;;;5.10;;
23561;SDS011;11959;49.418;8.728;2024-02-14T04:40:25;7.47;;;4.43;;
23561;SDS011;11959;49.418;8.728;2024-02-14T04:42:51;10.13;;;5.30;;
23561;SDS011;11959;49.418;8.728;2024-02-14T04:45:17;8.43;;;5.13;;
23561;SDS011;11959;49.418;8.728;2024-02-14T04:47:43;8.20;;;5.15;;
23561;SDS011;11959;49.418;8.728;2024-02-14T04:50:09;7.43;;;4.68;;
23561;SDS011;11959;49.418;8.728;2024-02-14T04:52:35;7.78;;;4.50;;
23561;SDS011;11959;49.418;8.728;2024-02-14T04:55:00;8.15;;;4.10;;
23561;SDS011;11959;49.418;8.728;2024-02-14T04:57:26;5.05;;;3.60;;
23561;SDS011;11959;49.418;8.728;2024-02-14T04:59:52;6.65;;;4.20;;
23561;SDS011;11959;49.418;8.728;2024-02-14T05:02:17;8.95;;;4.00;;
23561;SDS011;11959;49.418;8.728;2024-02-14T05:04:45;8.55;;;3.85;;
23561;SDS011;11959;49.418;8.728;2024-02-14T05:07:10;6.95;;;3.85;;
23561;SDS011;11959;49.418;8.728;2024-02-14T05:09:36;7.03;;;3.55;;
23561;SDS011;11959;49.418;8.728;2024-02-14T05:12:02;6.32;;;3.17;;
23561;SDS011;11959;49.418;8.728;2024-02-14T05:14:28;7.85;;;4.38;;
23561;SDS011;11959;49.418;8.728;2024-02-14T05:16:57;6.43;;;4.13;;
23561;SDS011;11959;49.418;8.728;2024-02-14T05:19:22;5.22;;;3.70;;
23561;SDS011;11959;49.418;8.728;2024-02-14T05:21:48;8.32;;;4.53;;
23561;SDS011;11959;49.418;8.728;2024-02-14T05:24:14;7.30;;;3.80;;
23561;SDS011;11959;49.418;8.728;2024-02-14T05:26:40;8.13;;;3.25;;
23561;SDS011;11959;49.418;8.728;2024-02-14T05:29:05;6.78;;;3.30;;
23561;SDS011;11959;49.418;8.728;2024-02-14T05:31:42;6.82;;;3.05;;
23561;SDS011;11959;49.418;8.728;2024-02-14T05:34:09;4.78;;;2.70;;
23561;SDS011;11959;49.418;8.728;2024-02-14T05:36:35;6.05;;;3.70;;
23561;SDS011;11959;49.418;8.728;2024-02-14T05:39:01;9.20;;;4.60;;
23561;SDS011;11959;49.418;8.728;2024-02-14T05:41:27;7.13;;;4.43;;
23561;SDS011;11959;49.418;8.728;2024-02-14T05:43:53;7.63;;;4.60;;
23561;SDS011;11959;49.418;8.728;2024-02-14T05:46:18;7.32;;;4.57;;
23561;SDS011;11959;49.418;8.728;2024-02-14T05:48:46;8.93;;;4.90;;
23561;SDS011;11959;49.418;8.728;2024-02-14T05:51:11;8.75;;;4.50;;
23561;SDS011;11959;49.418;8.728;2024-02-14T05:53:37;6.55;;;3.92;;
23561;SDS011;11959;49.418;8.728;2024-02-14T05:56:03;7.15;;;3.60;;
23561;SDS011;11959;49.418;8.728;2024-02-14T05:58:29;4.88;;;2.50;;
23561;SDS011;11959;49.418;8.728;2024-02-14T06:00:54;5.55;;;2.85;;
23561;SDS011;11959;49.418;8.728;2024-02-14T06:03:20;5.30;;;3.20;;
23561;SDS011;11959;49.418;8.728;2024-02-14T06:05:46;7.47;;;4.32;;
23561;SDS011;11959;49.418;8.728;2024-02-14T06:08:12;5.25;;;3.63;;
23561;SDS011;11959;49.418;8.728;2024-02-14T06:10:38;9.45;;;4.00;;
23561;SDS011;11959;49.418;8.728;2024-02-14T06:13:04;8.80;;;4.43;;
23561;SDS011;11959;49.418;8.728;2024-02-14T06:15:30;6.70;;;4.15;;
23561;SDS011;11959;49.418;8.728;2024-02-14T06:17:56;6.22;;;3.55;;
23561;SDS011;11959;49.418;8.728;2024-02-14T06:20:22;6.72;;;3.83;;
23561;SDS011;11959;49.418;8.728;2024-02-14T06:22:48;5.32;;;3.30;;
23561;SDS011;11959;49.418;8.728;2024-02-14T06:25:13;6.35;;;3.17;;
23561;SDS011;11959;49.418;8.728;2024-02-14T06:27:41;7.15;;;2.97;;
23561;SDS011;11959;49.418;8.728;2024-02-14T06:30:07;5.22;;;3.10;;
23561;SDS011;11959;49.418;8.728;2024-02-14T06:32:33;6.15;;;3.30;;
23561;SDS011;11959;49.418;8.728;2024-02-14T06:34:59;9.40;;;3.55;;
23561;SDS011;11959;49.418;8.728;2024-02-14T06:37:24;8.73;;;3.75;;
23561;SDS011;11959;49.418;8.728;2024-02-14T06:39:50;5.75;;;3.40;;
23561;SDS011;11959;49.418;8.728;2024-02-14T06:42:16;5.07;;;3.13;;
23561;SDS011;11959;49.418;8.728;2024-02-14T06:44:42;6.95;;;3.80;;
23561;SDS011;11959;49.418;8.728;2024-02-14T06:47:08;6.32;;;3.30;;
23561;SDS011;11959;49.418;8.728;2024-02-14T06:49:33;7.15;;;3.10;;
23561;SDS011;11959;49.418;8.728;2024-02-14T06:51:59;6.28;;;3.30;;
23561;SDS011;11959;49.418;8.728;2024-02-14T06:54:25;7.45;;;3.03;;
23561;SDS011;11959;49.418;8.728;2024-02-14T06:56:50;7.35;;;3.15;;
23561;SDS011;11959;49.418;8.728;2024-02-14T06:59:16;5.65;;;2.60;;
23561;SDS011;11959;49.418;8.728;2024-02-14T07:01:41;7.72;;;2.70;;
23561;SDS011;11959;49.418;8.728;2024-02-14T07:04:07;4.35;;;2.55;;
23561;SDS011;11959;49.418;8.728;2024-02-14T07:06:33;6.35;;;3.33;;
23561;SDS011;11959;49.418;8.728;2024-02-14T07:08:58;8.38;;;3.70;;
23561;SDS011;11959;49.418;8.728;2024-02-14T07:11:24;4.53;;;3.28;;
23561;SDS011;11959;49.418;8.728;2024-02-14T07:13:49;8.20;;;3.83;;
23561;SDS011;11959;49.418;8.728;2024-02-14T07:16:15;7.35;;;3.45;;
23561;SDS011;11959;49.418;8.728;2024-02-14T07:18:41;6.40;;;3.78;;
23561;SDS011;11959;49.418;8.728;2024-02-14T07:21:06;9.52;;;3.90;;
23561;SDS011;11959;49.418;8.728;2024-02-14T07:23:32;6.55;;;3.28;;
23561;SDS011;11959;49.418;8.728;2024-02-14T07:25:59;8.18;;;3.65;;
23561;SDS011;11959;49.418;8.728;2024-02-14T07:28:25;6.78;;;3.20;;
23561;SDS011;11959;49.418;8.728;2024-02-14T07:30:51;5.90;;;3.22;;
23561;SDS011;11959;49.418;8.728;2024-02-14T07:33:17;6.95;;;3.22;;
23561;SDS011;11959;49.418;8.728;2024-02-14T07:35:42;6.35;;;3.15;;
23561;SDS011;11959;49.418;8.728;2024-02-14T07:38:08;5.22;;;2.88;;
23561;SDS011;11959;49.418;8.728;2024-02-14T07:40:34;6.28;;;3.35;;
23561;SDS011;11959;49.418;8.728;2024-02-14T07:43:00;6.80;;;3.13;;
23561;SDS011;11959;49.418;8.728;2024-02-14T07:45:26;6.75;;;3.17;;
23561;SDS011;11959;49.418;8.728;2024-02-14T07:47:52;4.85;;;2.80;;
23561;SDS011;11959;49.418;8.728;2024-02-14T07:50:17;6.15;;;2.53;;
23561;SDS011;11959;49.418;8.728;2024-02-14T07:52:44;6.25;;;2.83;;
23561;SDS011;11959;49.418;8.728;2024-02-14T07:55:10;5.30;;;2.42;;
23561;SDS011;11959;49.418;8.728;2024-02-14T07:57:37;5.28;;;2.63;;
23561;SDS011;11959;49.418;8.728;2024-02-14T08:00:06;5.97;;;2.53;;
23561;SDS011;11959;49.418;8.728;2024-02-14T08:02:33;6.63;;;2.60;;
23561;SDS011;11959;49.418;8.728;2024-02-14T08:05:00;5.93;;;2.42;;
23561;SDS011;11959;49.418;8.728;2024-02-14T08:07:26;4.40;;;2.40;;
23561;SDS011;11959;49.418;8.728;2024-02-14T08:09:52;5.18;;;2.50;;
23561;SDS011;11959;49.418;8.728;2024-02-14T08:12:18;5.43;;;2.50;;
23561;SDS011;11959;49.418;8.728;2024-02-14T08:14:44;5.55;;;2.60;;
23561;SDS011;11959;49.418;8.728;2024-02-14T08:17:09;5.47;;;2.28;;
23561;SDS011;11959;49.418;8.728;2024-02-14T08:19:35;4.32;;;2.13;;
23561;SDS011;11959;49.418;8.728;2024-02-14T08:22:01;5.28;;;2.47;;
23561;SDS011;11959;49.418;8.728;2024-02-14T08:24:27;7.07;;;2.70;;
23561;SDS011;11959;49.418;8.728;2024-02-14T08:26:53;3.67;;;2.35;;
23561;SDS011;11959;49.418;8.728;2024-02-14T08:29:19;5.30;;;2.42;;
23561;SDS011;11959;49.418;8.728;2024-02-14T08:31:45;5.07;;;2.60;;
23561;SDS011;11959;49.418;8.728;2024-02-14T08:34:11;5.25;;;2.42;;
23561;SDS011;11959;49.418;8.728;2024-02-14T08:36:37;6.38;;;2.42;;
23561;SDS011;11959;49.418;8.728;2024-02-14T08:39:08;6.22;;;2.55;;
23561;SDS011;11959;49.418;8.728;2024-02-14T08:41:37;4.63;;;2.28;;
23561;SDS011;11959;49.418;8.728;2024-02-14T08:44:04;7.13;;;2.40;;
23561;SDS011;11959;49.418;8.728;2024-02-14T08:46:30;3.90;;;2.13;;
23561;SDS011;11959;49.418;8.728;2024-02-14T08:48:56;6.57;;;2.45;;
23561;SDS011;11959;49.418;8.728;2024-02-14T08:51:21;3.58;;;2.10;;
23561;SDS011;11959;49.418;8.728;2024-02-14T08:53:47;6.35;;;2.33;;
23561;SDS011;11959;49.418;8.728;2024-02-14T08:56:13;7.57;;;2.42;;
23561;SDS011;11959;49.418;8.728;2024-02-14T08:58:39;6.10;;;2.63;;
23561;SDS011;11959;49.418;8.728;2024-02-14T09:01:04;5.72;;;2.70;;
23561;SDS011;11959;49.418;8.728;2024-02-14T09:03:30;7.07;;;2.65;;
23561;SDS011;11959;49.418;8.728;2024-02-14T09:05:56;3.92;;;2.38;;
23561;SDS011;11959;49.418;8.728;2024-02-14T09:08:22;3.60;;;2.10;;
23561;SDS011;11959;49.418;8.728;2024-02-14T09:10:49;7.28;;;2.80;;
23561;SDS011;11959;49.418;8.728;2024-02-14T09:13:17;7.53;;;2.70;;
23561;SDS011;11959;49.418;8.728;2024-02-14T09:15:43;6.57;;;2.45;;
23561;SDS011;11959;49.418;8.728;2024-02-14T09:18:09;3.78;;;2.38;;
23561;SDS011;11959;49.418;8.728;2024-02-14T09:20:34;3.95;;;2.20;;
23561;SDS011;11959;49.418;8.728;2024-02-14T09:23:02;5.72;;;3.05;;
23561;SDS011;11959;49.418;8.728;2024-02-14T09:25:28;8.48;;;3.03;;
23561;SDS011;11959;49.418;8.728;2024-02-14T09:27:54;5.43;;;2.85;;
23561;SDS011;11959;49.418;8.728;2024-02-14T09:30:19;5.10;;;3.15;;
23561;SDS011;11959;49.418;8.728;2024-02-14T09:32:45;6.15;;;2.55;;
23561;SDS011;11959;49.418;8.728;2024-02-14T09:35:12;4.13;;;2.40;;
23561;SDS011;11959;49.418;8.728;2024-02-14T09:37:38;4.15;;;2.53;;
23561;SDS011;11959;49.418;8.728;2024-02-14T09:40:04;5.53;;;2.63;;
23561;SDS011;11959;49.418;8.728;2024-02-14T09:45:28;5.63;;;2.60;;
23561;SDS011;11959;49.418;8.728;2024-02-14T09:47:58;6.90;;;2.63;;
23561;SDS011;11959;49.418;8.728;2024-02-14T09:50:24;6.43;;;2.60;;
23561;SDS011;11959;49.418;8.728;2024-02-14T09:52:53;5.68;;;2.80;;
23561;SDS011;11959;49.418;8.728;2024-02-14T09:55:20;5.47;;;2.60;;
23561;SDS011;11959;49.418;8.728;2024-02-14T09:57:48;5.20;;;2.75;;
23561;SDS011;11959;49.418;8.728;2024-02-14T10:00:14;4.97;;;2.47;;
23561;SDS011;11959;49.418;8.728;2024-02-14T10:02:40;5.18;;;2.88;;
23561;SDS011;11959;49.418;8.728;2024-02-14T10:05:06;6.53;;;2.63;;
23561;SDS011;11959;49.418;8.728;2024-02-14T10:07:42;4.90;;;2.83;;
23561;SDS011;11959;49.418;8.728;2024-02-14T10:10:09;4.72;;;2.60;;
23561;SDS011;11959;49.418;8.728;2024-02-14T10:12:35;5.22;;;2.60;;
23561;SDS011;11959;49.418;8.728;2024-02-14T10:15:01;4.25;;;2.33;;
23561;SDS011;11959;49.418;8.728;2024-02-14T10:17:27;7.82;;;3.22;;
23561;SDS011;11959;49.418;8.728;2024-02-14T10:19:57;6.00;;;2.80;;
23561;SDS011;11959;49.418;8.728;2024-02-14T10:22:23;6.15;;;2.78;;
23561;SDS011;11959;49.418;8.728;2024-02-14T10:24:50;5.97;;;2.47;;
23561;SDS011;11959;49.418;8.728;2024-02-14T10:27:16;4.28;;;2.17;;
23561;SDS011;11959;49.418;8.728;2024-02-14T10:29:41;6.07;;;2.63;;
23561;SDS011;11959;49.418;8.728;2024-02-14T10:32:09;4.60;;;2.40;;
23561;SDS011;11959;49.418;8.728;2024-02-14T10:34:35;6.32;;;2.80;;
23561;SDS011;11959;49.418;8.728;2024-02-14T10:37:02;5.97;;;2.83;;
23561;SDS011;11959;49.418;8.728;2024-02-14T10:39:30;5.53;;;2.42;;
23561;SDS011;11959;49.418;8.728;2024-02-14T10:41:57;5.32;;;2.30;;
23561;SDS011;11959;49.418;8.728;2024-02-14T10:44:23;5.05;;;2.38;;
23561;SDS011;11959;49.418;8.728;2024-02-14T10:46:48;5.45;;;2.75;;
23561;SDS011;11959;49.418;8.728;2024-02-14T10:49:17;7.40;;;2.67;;
23561;SDS011;11959;49.418;8.728;2024-02-14T10:51:45;4.22;;;2.20;;
23561;SDS011;11959;49.418;8.728;2024-02-14T10:54:14;5.43;;;2.58;;
23561;SDS011;11959;49.418;8.728;2024-02-14T10:56:42;4.32;;;2.30;;
23561;SDS011;11959;49.418;8.728;2024-02-14T10:59:11;6.28;;;2.60;;
23561;SDS011;11959;49.418;8.728;2024-02-14T11:01:41;6.78;;;2.42;;
23561;SDS011;11959;49.418;8.728;2024-02-14T11:04:07;7.47;;;3.17;;
23561;SDS011;11959;49.418;8.728;2024-02-14T11:06:48;5.20;;;2.63;;
23561;SDS011;11959;49.418;8.728;2024-02-14T11:09:19;5.28;;;2.40;;
23561;SDS011;11959;49.418;8.728;2024-02-14T11:11:46;6.95;;;2.50;;
23561;SDS011;11959;49.418;8.728;2024-02-14T11:14:15;5.68;;;2.45;;
23561;SDS011;11959;49.418;8.728;2024-02-14T11:16:47;5.55;;;2.50;;
23561;SDS011;11959;49.418;8.728;2024-02-14T11:19:13;5.43;;;2.60;;
23561;SDS011;11959;49.418;8.728;2024-02-14T11:24:11;5.18;;;2.80;;
23561;SDS011;11959;49.418;8.728;2024-02-14T11:26:47;6.78;;;2.88;;
23561;SDS011;11959;49.418;8.728;2024-02-14T11:29:14;4.93;;;2.88;;
23561;SDS011;11959;49.418;8.728;2024-02-14T11:31:46;5.78;;;2.72;;
23561;SDS011;11959;49.418;8.728;2024-02-14T11:34:15;5.57;;;3.10;;
23561;SDS011;11959;49.418;8.728;2024-02-14T11:36:43;4.72;;;2.65;;
23561;SDS011;11959;49.418;8.728;2024-02-14T11:39:10;6.57;;;2.80;;
23561;SDS011;11959;49.418;8.728;2024-02-14T11:41:37;5.28;;;2.40;;
23561;SDS011;11959;49.418;8.728;2024-02-14T11:44:06;5.00;;;2.70;;
23561;SDS011;11959;49.418;8.728;2024-02-14T11:46:32;4.65;;;2.65;;
23561;SDS011;11959;49.418;8.728;2024-02-14T11:48:59;5.35;;;2.50;;
23561;SDS011;11959;49.418;8.728;2024-02-14T11:51:31;4.63;;;2.30;;
23561;SDS011;11959;49.418;8.728;2024-02-14T11:54:03;6.65;;;2.78;;
23561;SDS011;11959;49.418;8.728;2024-02-14T11:56:32;7.38;;;2.90;;
23561;SDS011;11959;49.418;8.728;2024-02-14T12:01:31;4.18;;;2.35;;
23561;SDS011;11959;49.418;8.728;2024-02-14T12:03:59;4.07;;;2.20;;
23561;SDS011;11959;49.418;8.728;2024-02-14T12:06:29;3.53;;;2.10;;
23561;SDS011;11959;49.418;8.728;2024-02-14T12:08:57;6.07;;;2.42;;
23561;SDS011;11959;49.418;8.728;2024-02-14T12:11:30;4.88;;;2.42;;
23561;SDS011;11959;49.418;8.728;2024-02-14T12:14:00;3.42;;;2.15;;
23561;SDS011;11959;49.418;8.728;2024-02-14T12:16:27;4.82;;;2.38;;
23561;SDS011;11959;49.418;8.728;2024-02-14T12:19:03;3.88;;;2.17;;
23561;SDS011;11959;49.418;8.728;2024-02-14T12:21:37;3.35;;;2.55;;
23561;SDS011;11959;49.418;8.728;2024-02-14T12:24:07;3.58;;;2.08;;
23561;SDS011;11959;49.418;8.728;2024-02-14T12:26:35;5.25;;;2.42;;
23561;SDS011;11959;49.418;8.728;2024-02-14T12:29:04;3.60;;;1.90;;
23561;SDS011;11959;49.418;8.728;2024-02-14T12:31:32;2.97;;;2.00;;
23561;SDS011;11959;49.418;8.728;2024-02-14T12:33:59;5.03;;;2.28;;
23561;SDS011;11959;49.418;8.728;2024-02-14T12:36:30;3.63;;;2.53;;
23561;SDS011;11959;49.418;8.728;2024-02-14T12:38:58;3.78;;;2.20;;
23561;SDS011;11959;49.418;8.728;2024-02-14T12:41:24;3.80;;;2.33;;
23561;SDS011;11959;49.418;8.728;2024-02-14T12:43:52;3.25;;;2.20;;
23561;SDS011;11959;49.418;8.728;2024-02-14T12:46:18;3.47;;;2.13;;
23561;SDS011;11959;49.418;8.728;2024-02-14T12:48:44;3.38;;;2.10;;
23561;SDS011;11959;49.418;8.728;2024-02-14T12:51:10;3.75;;;2.05;;
23561;SDS011;11959;49.418;8.728;2024-02-14T12:53:37;3.38;;;2.03;;
23561;SDS011;11959;49.418;8.728;2024-02-14T12:56:03;3.78;;;2.35;;
23561;SDS011;11959;49.418;8.728;2024-02-14T12:58:30;3.20;;;2.10;;
23561;SDS011;11959;49.418;8.728;2024-02-14T13:00:56;3.50;;;2.15;;
23561;SDS011;11959;49.418;8.728;2024-02-14T13:03:23;4.93;;;2.22;;
23561;SDS011;11959;49.418;8.728;2024-02-14T13:05:53;2.65;;;1.90;;
23561;SDS011;11959;49.418;8.728;2024-02-14T13:08:19;3.58;;;2.13;;
23561;SDS011;11959;49.418;8.728;2024-02-14T13:10:45;3.67;;;2.05;;
23561;SDS011;11959;49.418;8.728;2024-02-14T13:13:11;4.63;;;2.47;;
23561;SDS011;11959;49.418;8.728;2024-02-14T13:15:37;3.78;;;2.53;;
23561;SDS011;11959;49.418;8.728;2024-02-14T13:18:03;3.53;;;2.33;;
23561;SDS011;11959;49.418;8.728;2024-02-14T13:20:30;4.63;;;2.22;;
23561;SDS011;11959;49.418;8.728;2024-02-14T13:22:56;5.72;;;2.90;;
23561;SDS011;11959;49.418;8.728;2024-02-14T13:25:21;4.50;;;2.80;;
23561;SDS011;11959;49.418;8.728;2024-02-14T13:27:47;4.25;;;2.53;;
23561;SDS011;11959;49.418;8.728;2024-02-14T13:30:13;4.55;;;2.15;;
23561;SDS011;11959;49.418;8.728;2024-02-14T13:32:38;3.75;;;2.22;;
23561;SDS011;11959;49.418;8.728;2024-02-14T13:35:04;4.95;;;1.90;;
23561;SDS011;11959;49.418;8.728;2024-02-14T13:37:31;3.13;;;2.00;;
23561;SDS011;11959;49.418;8.728;2024-02-14T13:39:58;2.83;;;1.92;;
23561;SDS011;11959;49.418;8.728;2024-02-14T13:42:24;3.85;;;2.33;;
23561;SDS011;11959;49.418;8.728;2024-02-14T13:44:49;3.42;;;2.25;;
23561;SDS011;11959;49.418;8.728;2024-02-14T13:47:18;2.97;;;1.88;;
23561;SDS011;11959;49.418;8.728;2024-02-14T13:49:44;3.70;;;1.85;;
23561;SDS011;11959;49.418;8.728;2024-02-14T13:52:09;3.00;;;1.90;;
23561;SDS011;11959;49.418;8.728;2024-02-14T13:54:35;3.60;;;1.95;;
23561;SDS011;11959;49.418;8.728;2024-02-14T13:57:01;3.72;;;1.75;;
23561;SDS011;11959;49.418;8.728;2024-02-14T13:59:27;2.45;;;1.67;;
23561;SDS011;11959;49.418;8.728;2024-02-14T14:01:54;3.92;;;1.77;;
23561;SDS011;11959;49.418;8.728;2024-02-14T14:04:20;3.00;;;1.80;;
23561;SDS011;11959;49.418;8.728;2024-02-14T14:06:46;4.85;;;1.92;;
23561;SDS011;11959;49.418;8.728;2024-02-14T14:09:12;3.97;;;1.98;;
23561;SDS011;11959;49.418;8.728;2024-02-14T14:11:38;3.80;;;1.90;;
23561;SDS011;11959;49.418;8.728;2024-02-14T14:14:04;3.47;;;1.80;;
23561;SDS011;11959;49.418;8.728;2024-02-14T14:16:30;3.78;;;2.38;;
23561;SDS011;11959;49.418;8.728;2024-02-14T14:18:58;5.38;;;2.25;;
23561;SDS011;11959;49.418;8.728;2024-02-14T14:21:24;3.03;;;1.50;;
23561;SDS011;11959;49.418;8.728;2024-02-14T14:23:49;2.92;;;1.67;;
23561;SDS011;11959;49.418;8.728;2024-02-14T14:26:15;4.05;;;1.70;;
23561;SDS011;11959;49.418;8.728;2024-02-14T14:28:41;2.20;;;1.20;;
23561;SDS011;11959;49.418;8.728;2024-02-14T14:31:07;2.22;;;1.08;;
23561;SDS011;11959;49.418;8.728;2024-02-14T14:33:36;1.10;;;0.90;;
23561;SDS011;11959;49.418;8.728;2024-02-14T14:36:03;1.50;;;0.98;;
23561;SDS011;11959;49.418;8.728;2024-02-14T14:38:29;2.08;;;1.10;;
23561;SDS011;11959;49.418;8.728;2024-02-14T14:40:55;1.27;;;0.93;;
23561;SDS011;11959;49.418;8.728;2024-02-14T14:43:21;2.10;;;1.30;;
23561;SDS011;11959;49.418;8.728;2024-02-14T14:45:47;2.35;;;1.60;;
23561;SDS011;11959;49.418;8.728;2024-02-14T14:48:14;2.92;;;1.23;;
23561;SDS011;11959;49.418;8.728;2024-02-14T14:50:40;2.13;;;1.20;;
23561;SDS011;11959;49.418;8.728;2024-02-14T14:53:07;1.60;;;0.90;;